• Join FlightAware (Why Join?)
  • Login
  • US Flag 
04:14AM EST


 

Airport Tracker/Info


-or-


 

Live Flight TrackerFlight Track Log ✈ RPA3411 ✈ 06-Jul-2013 ✈ KPHL - KBNA

Flight Track Log - Related Links

Times and Time Zones

All times are in EDT time to prevent confusion due to time zone crossing. See the RPA3411 flight status page for this flight to view local times or setup timezone preferences in your user account.

Time Position Orientation Groundspeed Altitude Reporting Facility
EDT Latitude Longitude Course Direction KTS MPH feet Rate Location/Type
03:52PM 39.8667 -75.2833 270° West 148 170 900  Level Philadelphia TRACON
03:54PM 39.8333 -75.4000 250° West 256 295 3,700 2,340 Climbing Philadelphia TRACON
03:55PM 39.9000 -75.5836 270° West  Level FlightAware Approximate
03:55PM 39.8333 -75.4833 270° West 267 307 6,800  Level Philadelphia TRACON
03:56PM 39.9110 -75.7005 258° West  Level FlightAware Approximate
03:57PM 39.9000 -75.8201 270° West  Level FlightAware Approximate
03:57PM 39.8461 -75.6406 276° West 292 336 10,200  Level New York Center
03:58PM 39.9000 -75.9412 270° West  Level FlightAware Approximate
03:58PM 39.8583 -75.7467 279° West 319 367 12,300  Level New York Center
03:59PM 39.8736 -75.8778 279° West 338 389 14,800 2,280 Climbing New York Center
04:00PM 39.8869 -76.0031 278° West 338 389 16,900 1,860 Climbing New York Center
04:01PM 39.9022 -76.1289 279° West 349 402 18,600 1,680 Climbing New York Center
04:02PM 39.9083 -76.2672 273° West 365 420 20,300 1,680 Climbing New York Center
04:03PM 39.9164 -76.4033 274° West 377 434 22,000 1,620 Climbing New York Center
04:04PM 39.9242 -76.5447 274° West 387 445 23,600 1,380 Climbing New York Center
04:05PM 39.9256 -76.6856 271° West 387 445 24,800 1,200 Climbing New York Center
04:06PM 39.8772 -76.8142 244° Southwest 383 441 26,000 1,080 Climbing New York Center
04:07PM 39.8189 -76.9389 239° Southwest 397 457 27,100 1,020 Climbing New York Center
04:08PM 39.7578 -77.0686 239° Southwest 402 463 28,100 1,020 Climbing New York Center
04:08PM 39.7094 -77.1722 239° Southwest 416 479 29,000 1,140 Climbing Washington Center
04:09PM 39.6453 -77.3028 237° Southwest 423 487 30,200 1,140 Climbing Washington Center
04:10PM 39.5850 -77.4361 240° Southwest 428 493 31,300 1,140 Climbing Washington Center
04:11PM 39.5225 -77.5661 238° Southwest 428 493 32,500 1,020 Climbing Washington Center
04:12PM 39.4619 -77.6908 238° Southwest 423 487 33,400 720 Climbing Washington Center
04:13PM 39.4014 -77.8181 238° Southwest 423 487 34,000 300 Climbing Washington Center
04:14PM 39.3444 -77.9586 242° Southwest 430 495 34,000  Level Washington Center
04:15PM 39.2875 -78.0961 242° Southwest 437 503 34,000  Level Washington Center
04:16PM 39.2325 -78.2389 244° Southwest 442 509 34,000  Level Washington Center
04:17PM 39.1750 -78.3761 242° Southwest 442 509 34,000  Level Washington Center
04:18PM 39.1175 -78.5158 242° Southwest 442 509 34,000  Level Washington Center
04:19PM 39.0619 -78.6578 243° Southwest 447 514 34,000 120 Level Washington Center
04:20PM 39.0064 -78.7944 242° Southwest 447 514 34,300 660 Climbing Washington Center
04:21PM 38.9506 -78.9308 242° Southwest 447 514 35,300 840 Climbing Washington Center
04:22PM 38.8944 -79.0669 242° Southwest 442 509 36,000 300 Climbing Washington Center
04:23PM 38.8517 -79.1742 243° Southwest 442 509 36,000  Level Washington Center
04:24PM 38.8128 -79.3564 255° West 442 509 36,000  Level Washington Center
04:25PM 38.7903 -79.4775 257° West 447 514 36,000  Level Washington Center
04:26PM 38.7631 -79.6678 260° West 443 510 36,000  Level Washington Center
04:27PM 38.7847 -79.8208 280° West 448 516 36,000  Level Washington Center
04:28PM 38.8125 -79.9706 283° West 450 518 36,000  Level Indianapolis Center
04:29PM 38.8442 -80.1250 285° West 449 517 36,000  Level Indianapolis Center
04:30PM 38.8764 -80.2800 285° West 450 518 36,000  Level Indianapolis Center
04:31PM 38.9083 -80.4303 285° West 440 506 36,000  Level Indianapolis Center
04:32PM 38.9419 -80.5797 286° West 439 505 36,000  Level Indianapolis Center
04:34PM 38.9767 -80.7303 287° West 440 506 36,000  Level Indianapolis Center
04:35PM 39.0108 -80.8803 286° West 439 505 36,000  Level Indianapolis Center
04:36PM 39.0517 -81.0556 287° West 431 496 36,000  Level Indianapolis Center
04:37PM 39.0875 -81.2033 287° West 435 501 36,000  Level Indianapolis Center
04:38PM 39.1228 -81.3517 287° West 436 502 36,000  Level Indianapolis Center
04:39PM 39.1589 -81.4997 288° West 437 503 36,000  Level Indianapolis Center
04:40PM 39.1956 -81.6464 288° West 435 501 36,000  Level Indianapolis Center
04:41PM 39.2317 -81.7942 288° West 435 501 36,000  Level Indianapolis Center
04:42PM 39.2681 -81.9400 288° West 431 496 36,000  Level Indianapolis Center
04:43PM 39.3133 -82.1147 289° West 429 494 36,000  Level Indianapolis Center
04:44PM 39.3508 -82.2614 288° West 432 497 36,000  Level Indianapolis Center
04:45PM 39.3283 -82.4058 259° West 412 474 36,000  Level Indianapolis Center
04:46PM 39.2731 -82.5397 242° Southwest 406 467 36,000  Level Indianapolis Center
04:47PM 39.2081 -82.6589 235° Southwest 402 463 36,000  Level Indianapolis Center
04:48PM 39.1311 -82.7450 221° Southwest 397 457 36,000  Level Indianapolis Center
04:49PM 39.0419 -82.8311 217° Southwest 400 460 36,000  Level Indianapolis Center
04:50PM 38.9536 -82.9189 218° Southwest 403 464 36,000  Level Indianapolis Center
04:51PM 38.8467 -83.0219 217° Southwest 401 461 36,000  Level Indianapolis Center
04:52PM 38.7567 -83.1094 217° Southwest 406 467 36,000  Level Indianapolis Center
04:53PM 38.6706 -83.1925 217° Southwest 405 466 36,000  Level Indianapolis Center
04:54PM 38.5706 -83.2894 217° Southwest 397 457 36,000 -60 Level Indianapolis Center
04:55PM 38.4831 -83.3722 217° Southwest 393 452 35,900 -300 Descending Indianapolis Center
04:56PM 38.3964 -83.4569 217° Southwest 393 452 35,400 -840 Descending Indianapolis Center
04:57PM 38.3081 -83.5406 217° Southwest 395 455 34,300 -1,080 Descending Indianapolis Center
04:58PM 38.2183 -83.6261 217° Southwest 400 460 33,200 -1,080 Descending Indianapolis Center
04:59PM 38.1283 -83.7106 216° Southwest 402 463 32,200 -600 Descending Indianapolis Center
05:00PM 38.0372 -83.7961 216° Southwest 406 467 32,000 -120 Descending Indianapolis Center
05:01PM 37.9469 -83.8828 217° Southwest 406 467 32,000  Level Indianapolis Center
05:02PM 37.8411 -83.9825 217° Southwest 407 468 32,000  Level Indianapolis Center
05:03PM 37.7517 -84.0653 216° Southwest 399 459 32,000  Level Indianapolis Center
05:04PM 37.6644 -84.1467 216° Southwest 390 449 32,000  Level Indianapolis Center
05:05PM 37.5786 -84.2286 217° Southwest 388 447 32,000  Level Indianapolis Center
05:06PM 37.5036 -84.3233 225° Southwest 385 443 32,000  Level Indianapolis Center
05:07PM 37.4333 -84.4261 229° Southwest 385 443 32,000  Level Indianapolis Center
05:08PM 37.3617 -84.5292 229° Southwest 391 450 32,000 -600 Level Indianapolis Center
05:09PM 37.2792 -84.6500 229° Southwest 389 448 30,800 -1,140 Descending Indianapolis Center
05:10PM 37.2069 -84.7522 228° Southwest 391 450 29,700 -1,260 Descending Indianapolis Center
05:11PM 37.1342 -84.8592 230° Southwest 401 461 28,300 -1,620 Descending Indianapolis Center
05:12PM 37.0608 -84.9631 229° Southwest 397 457 26,500 -1,680 Descending Indianapolis Center
05:13PM 36.9944 -85.0581 229° Southwest 379 436 24,900 -1,680 Descending Indianapolis Center
05:14PM 36.9258 -85.1553 229° Southwest 375 432 23,200 -1,440 Descending Indianapolis Center
05:16PM 36.8456 -85.2708 229° Southwest 369 425 22,000 -720 Descending Indianapolis Center
05:17PM 36.7783 -85.3636 228° Southwest 363 418 21,800 -1,140 Descending Indianapolis Center
05:18PM 36.7197 -85.4672 235° Southwest 367 422 19,700 -1,980 Descending Indianapolis Center
05:19PM 36.6697 -85.5739 240° Southwest 361 415 17,900 -1,680 Descending Indianapolis Center
05:20PM 36.6217 -85.6742 239° Southwest 339 390 16,300 -1,560 Descending Indianapolis Center
05:21PM 36.5806 -85.7606 239° Southwest 296 341 14,800 -1,620 Descending Indianapolis Center
05:22PM 36.5333 -85.8608 240° Southwest 310 357 13,000 -1,740 Descending Indianapolis Center
05:23PM 36.4886 -85.9533 239° Southwest 310 357 11,300 -1,020 Descending Indianapolis Center
05:24PM 36.4456 -86.0450 240° Southwest 306 352 11,000 -180 Descending Indianapolis Center
05:25PM 36.4014 -86.1367 239° Southwest 306 352 11,000  Level Indianapolis Center
05:26PM 36.3581 -86.2297 240° Southwest 309 356 11,000 -660 Level Indianapolis Center
05:27PM 36.3153 -86.3161 238° Southwest 296 341 9,700 -1,680 Descending Indianapolis Center
05:28PM 36.2761 -86.3983 239° Southwest 279 321 7,600 -2,040 Descending Indianapolis Center